Time;durP1;ratioP1;P1;durP2;ratioP2;P2;SDS_P1;SDS_P2;PMS_P1;PMS_P2;Temp;Humidity;BMP_temperature;BMP_pressure;BME280_temperature;BME280_humidity;BME280_pressure;Samples;Min_cycle;Max_cycle;Signal;HPM_P1;HPM_P2
2022/12/09 00:00:51;;;;;;;25.25;14.70;;;4.40;99.90;;;;;;5071878;28;20221;-83
2022/12/09 00:03:16;;;;;;;27.30;14.02;;;4.30;99.90;;;;;;5072242;28;20219;-81
2022/12/09 00:05:42;;;;;;;23.35;14.05;;;4.30;99.90;;;;;;5072338;28;20163;-83
2022/12/09 00:08:07;;;;;;;29.23;14.95;;;4.10;99.90;;;;;;5071839;28;20166;-83
2022/12/09 00:10:33;;;;;;;31.50;15.35;;;4.10;99.90;;;;;;5071676;28;20190;-82
2022/12/09 00:12:58;;;;;;;23.40;14.50;;;4.20;99.90;;;;;;5071987;28;20245;-79
2022/12/09 00:15:24;;;;;;;20.45;13.70;;;4.20;99.90;;;;;;5071765;28;20532;-81
2022/12/09 00:17:49;;;;;;;30.17;14.05;;;4.20;99.90;;;;;;5071822;28;20159;-81
2022/12/09 00:20:15;;;;;;;20.67;14.38;;;4.10;99.90;;;;;;5071601;28;20170;-83
2022/12/09 00:22:41;;;;;;;15.02;12.80;;;4.10;99.90;;;;;;5071817;28;20699;-82
2022/12/09 00:25:07;;;;;;;22.80;14.23;;;4.00;99.90;;;;;;5072040;28;20285;-81
2022/12/09 00:27:32;;;;;;;34.58;14.52;;;4.10;99.90;;;;;;5071847;28;20171;-83
2022/12/09 00:29:58;;;;;;;26.85;15.57;;;4.00;99.90;;;;;;5071534;28;20216;-82
2022/12/09 00:32:23;;;;;;;22.35;14.35;;;4.10;99.90;;;;;;5071833;28;20211;-83
2022/12/09 00:34:49;;;;;;;31.45;14.85;;;4.20;99.90;;;;;;5071932;28;20166;-82
2022/12/09 00:37:15;;;;;;;24.13;15.68;;;4.10;99.90;;;;;;5072433;28;20163;-80
2022/12/09 00:39:40;;;;;;;25.70;14.13;;;4.20;99.90;;;;;;5081010;28;20244;-81
2022/12/09 00:42:06;;;;;;;17.48;13.68;;;4.00;99.90;;;;;;5081255;28;20279;-83
2022/12/09 00:44:32;;;;;;;22.63;13.18;;;3.80;99.90;;;;;;5080140;28;20209;-81
2022/12/09 00:46:57;;;;;;;27.98;15.88;;;3.80;99.90;;;;;;5081926;28;20159;-82
2022/12/09 00:49:23;;;;;;;35.63;15.35;;;3.60;99.90;;;;;;5078060;28;20653;-81
2022/12/09 00:51:49;;;;;;;29.42;14.80;;;3.80;99.90;;;;;;5079211;28;20193;-80
2022/12/09 00:54:14;;;;;;;22.10;13.85;;;3.80;99.90;;;;;;5078108;28;20208;-80
2022/12/09 00:56:40;;;;;;;23.27;13.70;;;3.50;99.90;;;;;;5078726;28;20542;-81
2022/12/09 00:59:06;;;;;;;38.42;15.85;;;3.60;99.90;;;;;;5076584;28;20170;-80
2022/12/09 01:01:31;;;;;;;27.02;14.10;;;3.60;99.90;;;;;;5083844;28;20187;-80
2022/12/09 01:03:57;;;;;;;27.88;15.23;;;3.70;99.90;;;;;;5079762;28;20257;-79
2022/12/09 01:06:24;;;;;;;23.02;13.30;;;3.50;99.90;;;;;;5083766;28;20178;-82
2022/12/09 01:08:50;;;;;;;24.80;14.23;;;3.40;99.90;;;;;;5084257;28;20171;-80
2022/12/09 01:11:19;;;;;;;27.02;15.20;;;3.50;99.90;;;;;;5081162;28;20197;-79
2022/12/09 01:13:46;;;;;;;30.05;14.73;;;3.50;99.90;;;;;;5084949;28;20250;-79
2022/12/09 01:16:20;;;;;;;27.92;15.95;;;3.80;99.90;;;;;;5093112;28;20231;-80
2022/12/09 01:18:48;;;;;;;27.55;14.95;;;3.70;99.90;;;;;;5084237;28;20168;-80
2022/12/09 01:21:15;;;;;;;31.80;16.73;;;3.40;99.90;;;;;;5083785;28;20282;-80
2022/12/09 01:23:40;;;;;;;35.30;17.25;;;3.30;99.90;;;;;;5083231;28;20194;-79
2022/12/09 01:26:06;;;;;;;36.17;15.13;;;3.20;99.90;;;;;;5088972;28;20170;-81
2022/12/09 01:28:37;;;;;;;29.55;15.73;;;3.10;99.90;;;;;;5089645;28;20182;-79
2022/12/09 01:31:08;;;;;;;37.38;15.60;;;2.90;99.90;;;;;;5069415;28;20198;-79
2022/12/09 01:33:37;;;;;;;36.15;15.90;;;2.70;99.90;;;;;;5081363;28;20235;-81
2022/12/09 01:36:05;;;;;;;26.67;16.40;;;2.90;99.90;;;;;;5080432;28;20228;-79
2022/12/09 01:38:31;;;;;;;30.88;16.88;;;2.80;99.90;;;;;;5082495;28;20159;-80
2022/12/09 01:40:57;;;;;;;28.13;15.95;;;2.70;99.90;;;;;;5084183;28;20615;-79
2022/12/09 01:43:22;;;;;;;32.25;15.35;;;2.90;99.90;;;;;;5079161;28;20167;-80
2022/12/09 01:45:49;;;;;;;27.67;15.18;;;2.90;99.90;;;;;;5084799;28;20184;-83
2022/12/09 01:48:21;;;;;;;34.17;15.65;;;3.00;99.90;;;;;;5081466;28;20657;-81
2022/12/09 01:50:51;;;;;;;29.77;17.48;;;3.00;99.90;;;;;;5074238;28;20662;-82
2022/12/09 01:53:20;;;;;;;29.80;15.95;;;2.90;99.90;;;;;;5074249;28;20175;-79
2022/12/09 01:55:46;;;;;;;33.97;17.60;;;3.10;99.90;;;;;;5074358;28;20237;-79
2022/12/09 01:58:13;;;;;;;29.67;16.50;;;3.20;99.90;;;;;;5074817;28;20166;-81
2022/12/09 02:00:39;;;;;;;31.40;16.20;;;3.30;99.90;;;;;;5074543;28;20190;-79
2022/12/09 02:03:05;;;;;;;28.92;16.67;;;3.10;99.90;;;;;;5074167;28;20170;-83
2022/12/09 02:05:31;;;;;;;27.58;15.75;;;3.00;99.90;;;;;;5074776;28;20758;-80
2022/12/09 02:07:56;;;;;;;30.48;16.75;;;3.00;99.90;;;;;;5074178;28;20198;-80
2022/12/09 02:10:22;;;;;;;30.85;16.58;;;3.10;99.90;;;;;;5074143;28;20186;-80
2022/12/09 02:12:59;;;;;;;28.90;14.75;;;3.00;99.90;;;;;;5074265;28;20241;-82
2022/12/09 02:15:56;;;;;;;35.65;17.20;;;3.10;99.90;;;;;;5073124;28;20170;-80
2022/12/09 02:18:22;;;;;;;35.70;17.83;;;3.40;99.90;;;;;;5075159;28;20202;-79
2022/12/09 02:21:00;;;;;;;30.55;16.15;;;3.30;99.90;;;;;;5082753;28;20182;-78
2022/12/09 02:23:40;;;;;;;31.75;16.70;;;3.10;99.90;;;;;;5084762;28;20166;-79
2022/12/09 02:26:21;;;;;;;34.38;17.73;;;2.90;99.90;;;;;;5086942;28;20149;-80
2022/12/09 02:29:20;;;;;;;32.67;16.67;;;2.90;99.90;;;;;;5087373;28;20584;-79
2022/12/09 02:32:12;;;;;;;39.22;19.33;;;2.90;99.90;;;;;;5086162;28;20213;-80
2022/12/09 02:34:51;;;;;;;36.70;18.08;;;2.90;99.90;;;;;;5086371;28;20170;-82
2022/12/09 02:37:26;;;;;;;32.42;15.52;;;3.10;99.90;;;;;;5086337;28;20174;-81
2022/12/09 02:39:58;;;;;;;25.98;15.27;;;3.00;99.90;;;;;;5076738;28;20178;-82
2022/12/09 02:42:29;;;;;;;26.98;15.02;;;3.20;99.90;;;;;;5073542;28;20194;-80
2022/12/09 02:44:56;;;;;;;33.15;16.48;;;3.10;99.90;;;;;;5073375;28;20206;-83
2022/12/09 02:47:28;;;;;;;34.10;16.05;;;2.80;99.90;;;;;;5072201;28;20178;-82
2022/12/09 02:49:59;;;;;;;28.88;17.30;;;2.70;99.90;;;;;;5073362;28;20171;-79
2022/12/09 02:52:28;;;;;;;35.10;18.52;;;2.80;99.90;;;;;;5073510;28;20234;-83
2022/12/09 02:54:54;;;;;;;38.15;17.70;;;2.70;99.90;;;;;;5073337;28;20690;-80
2022/12/09 02:57:25;;;;;;;42.33;20.30;;;2.60;99.90;;;;;;5073407;28;20170;-83
2022/12/09 02:59:51;;;;;;;36.88;17.15;;;2.40;99.90;;;;;;5072670;28;20212;-82
2022/12/09 03:02:30;;;;;;;33.55;18.30;;;2.40;99.90;;;;;;5073353;28;20186;-83
2022/12/09 03:05:11;;;;;;;39.88;19.20;;;2.60;99.90;;;;;;5085996;28;20210;-79
2022/12/09 03:07:49;;;;;;;41.28;20.42;;;2.60;99.90;;;;;;5080781;28;20194;-82
2022/12/09 03:10:21;;;;;;;34.50;19.17;;;2.80;99.90;;;;;;5080854;28;20170;-82
2022/12/09 03:12:53;;;;;;;38.05;18.42;;;2.80;99.90;;;;;;5086175;28;20175;-80
2022/12/09 03:15:25;;;;;;;37.95;18.55;;;2.60;99.90;;;;;;5086599;28;20155;-82
2022/12/09 03:17:52;;;;;;;38.45;19.25;;;2.60;99.90;;;;;;5072101;28;20178;-79
2022/12/09 03:20:25;;;;;;;45.85;20.63;;;2.60;99.90;;;;;;5089011;28;20685;-78
2022/12/09 03:22:53;;;;;;;51.92;20.17;;;2.40;99.90;;;;;;5090143;28;20162;-80
2022/12/09 03:25:31;;;;;;;32.83;16.63;;;2.50;99.90;;;;;;5093169;28;20281;-79
2022/12/09 03:28:04;;;;;;;45.88;19.55;;;2.80;99.90;;;;;;5091648;28;20192;-81
2022/12/09 03:30:39;;;;;;;40.50;19.63;;;2.80;99.90;;;;;;5089425;28;20205;-80
2022/12/09 03:33:08;;;;;;;43.22;18.60;;;2.50;99.90;;;;;;5090444;28;20515;-79
2022/12/09 03:35:39;;;;;;;34.10;17.80;;;2.40;99.90;;;;;;5072648;28;20220;-83
2022/12/09 03:38:08;;;;;;;35.58;18.42;;;2.60;99.90;;;;;;5071355;28;20194;-82
2022/12/09 03:40:35;;;;;;;48.30;20.20;;;2.70;99.90;;;;;;5079489;28;20210;-83
2022/12/09 03:43:19;;;;;;;37.42;18.13;;;2.70;99.90;;;;;;5066937;28;20171;-82
2022/12/09 03:45:46;;;;;;;47.60;18.38;;;2.60;99.90;;;;;;5077918;28;20307;-79
2022/12/09 03:48:11;;;;;;;38.83;17.73;;;2.90;99.90;;;;;;5086113;28;20162;-80
2022/12/09 03:51:05;;;;;;;49.28;18.85;;;3.10;99.90;;;;;;5089319;28;20196;-80
2022/12/09 03:53:55;;;;;;;42.10;18.50;;;3.00;99.90;;;;;;5085481;28;20174;-79
2022/12/09 03:56:27;;;;;;;37.80;18.15;;;2.90;99.90;;;;;;5090983;28;20166;-82
2022/12/09 03:58:55;;;;;;;37.50;18.08;;;2.30;99.90;;;;;;5083974;28;20167;-81
2022/12/09 04:01:26;;;;;;;42.53;18.13;;;2.30;99.90;;;;;;5078553;28;20182;-83
2022/12/09 04:03:55;;;;;;;41.85;17.77;;;2.40;99.90;;;;;;5083825;28;20194;-79
2022/12/09 04:06:21;;;;;;;40.17;17.77;;;2.50;99.90;;;;;;5077953;28;20227;-81
2022/12/09 04:08:49;;;;;;;35.55;17.25;;;2.60;99.90;;;;;;5081063;28;20189;-83
2022/12/09 04:11:14;;;;;;;36.78;17.63;;;2.50;99.90;;;;;;5076526;28;20175;-83
2022/12/09 04:13:40;;;;;;;33.95;16.95;;;2.40;99.90;;;;;;5083924;28;20643;-83
2022/12/09 04:16:06;;;;;;;46.33;17.77;;;2.50;99.90;;;;;;5083693;28;20167;-82
2022/12/09 04:18:31;;;;;;;38.35;17.52;;;2.30;99.90;;;;;;5082627;28;20312;-84
2022/12/09 04:20:57;;;;;;;32.65;16.92;;;2.40;99.90;;;;;;5087207;28;20183;-79
2022/12/09 04:23:22;;;;;;;35.58;17.30;;;2.40;99.90;;;;;;5089631;28;20163;-80
2022/12/09 04:25:48;;;;;;;41.85;15.88;;;2.60;99.90;;;;;;5088442;28;20204;-79
2022/12/09 04:28:14;;;;;;;31.30;15.57;;;2.70;99.90;;;;;;5089422;28;20182;-80
2022/12/09 04:30:45;;;;;;;42.65;18.63;;;2.70;99.90;;;;;;5089399;28;20190;-80
2022/12/09 04:33:11;;;;;;;52.50;17.98;;;2.40;99.90;;;;;;5089535;28;20528;-79
2022/12/09 04:35:39;;;;;;;63.72;17.40;;;2.40;99.90;;;;;;5089494;28;20162;-80
2022/12/09 04:38:05;;;;;;;34.53;16.33;;;2.60;99.90;;;;;;5086508;28;20694;-79
2022/12/09 04:40:30;;;;;;;45.22;17.02;;;2.60;99.90;;;;;;5088012;28;20182;-79
2022/12/09 04:42:58;;;;;;;54.25;15.35;;;2.60;99.90;;;;;;5089159;28;20162;-79
2022/12/09 04:45:24;;;;;;;61.42;15.85;;;2.50;99.90;;;;;;5083750;28;20210;-80
2022/12/09 04:47:50;;;;;;;56.70;15.93;;;2.60;99.90;;;;;;5081183;28;20174;-82
2022/12/09 04:50:17;;;;;;;39.42;15.68;;;2.40;99.90;;;;;;5081245;28;20220;-79
2022/12/09 04:52:46;;;;;;;43.15;14.57;;;2.60;99.90;;;;;;5084987;28;20166;-80
2022/12/09 04:55:13;;;;;;;55.88;14.98;;;2.60;99.90;;;;;;5086128;28;20154;-79
2022/12/09 04:57:40;;;;;;;47.65;13.38;;;2.60;99.90;;;;;;5082890;28;20215;-83
2022/12/09 05:00:06;;;;;;;33.38;15.25;;;2.20;99.90;;;;;;5085498;28;20627;-81
2022/12/09 05:02:32;;;;;;;51.13;15.77;;;2.40;99.90;;;;;;5083362;28;20163;-80
2022/12/09 05:05:00;;;;;;;48.38;14.85;;;2.60;99.90;;;;;;5083088;28;20193;-83
2022/12/09 05:07:30;;;;;;;31.77;15.55;;;2.30;99.90;;;;;;5084338;28;20159;-79
2022/12/09 05:09:56;;;;;;;55.65;15.68;;;2.10;99.90;;;;;;5082443;28;20205;-81
2022/12/09 05:12:23;;;;;;;49.28;14.40;;;2.20;99.90;;;;;;5081184;28;20186;-80
2022/12/09 05:14:49;;;;;;;27.33;15.18;;;2.50;99.90;;;;;;5081743;28;20167;-80
2022/12/09 05:17:14;;;;;;;42.15;14.80;;;2.50;99.90;;;;;;5082663;28;20251;-80
2022/12/09 05:19:40;;;;;;;26.10;14.05;;;2.60;99.90;;;;;;5083347;28;20163;-80
2022/12/09 05:22:05;;;;;;;50.28;13.75;;;2.40;99.90;;;;;;5080528;28;20300;-80
2022/12/09 05:24:31;;;;;;;28.58;12.98;;;2.70;99.90;;;;;;5077442;28;20599;-81
2022/12/09 05:26:57;;;;;;;37.58;13.40;;;2.90;99.90;;;;;;5083037;28;20204;-81
2022/12/09 05:29:26;;;;;;;53.00;14.52;;;2.50;99.90;;;;;;5082128;28;20238;-82
2022/12/09 05:31:52;;;;;;;47.20;13.88;;;2.40;99.90;;;;;;5082290;28;20210;-79
2022/12/09 05:34:19;;;;;;;33.50;15.85;;;2.40;99.90;;;;;;5080562;28;20182;-79
2022/12/09 05:36:44;;;;;;;46.47;15.57;;;2.50;99.90;;;;;;5084566;28;20170;-82
2022/12/09 05:39:10;;;;;;;29.58;15.00;;;2.60;99.90;;;;;;5082840;28;20178;-80
2022/12/09 05:41:36;;;;;;;41.53;14.75;;;2.70;99.90;;;;;;5082648;28;20190;-79
2022/12/09 05:44:01;;;;;;;27.42;14.70;;;2.70;99.90;;;;;;5085101;28;20202;-81
2022/12/09 05:46:29;;;;;;;48.38;15.00;;;2.60;99.90;;;;;;5083999;28;20588;-78
2022/12/09 05:48:54;;;;;;;45.58;14.40;;;2.40;99.90;;;;;;5086544;28;20240;-78
2022/12/09 05:51:26;;;;;;;52.58;15.57;;;2.30;99.90;;;;;;5087496;28;20194;-79
2022/12/09 05:53:54;;;;;;;56.13;16.65;;;2.30;99.90;;;;;;5086310;28;20186;-79
2022/12/09 05:56:22;;;;;;;34.67;15.00;;;2.10;99.90;;;;;;5049306;28;20630;-80
2022/12/09 05:58:49;;;;;;;46.38;13.68;;;2.20;99.90;;;;;;5084751;28;20170;-82
2022/12/09 06:01:17;;;;;;;37.78;15.32;;;2.30;99.90;;;;;;5087400;28;20216;-79
2022/12/09 06:03:46;;;;;;;52.13;13.95;;;2.50;99.90;;;;;;5095744;28;20234;-79
2022/12/09 06:06:14;;;;;;;22.00;12.75;;;2.70;99.90;;;;;;5083859;28;20520;-83
2022/12/09 06:08:41;;;;;;;44.88;14.13;;;2.70;99.90;;;;;;5084729;28;20171;-78
2022/12/09 06:11:12;;;;;;;39.35;13.05;;;2.70;99.90;;;;;;5083784;28;20621;-79
2022/12/09 06:13:39;;;;;;;33.05;12.90;;;2.60;99.90;;;;;;5086805;28;20174;-81
2022/12/09 06:16:33;;;;;;;31.02;12.50;;;2.60;99.90;;;;;;5083369;28;20223;-80
2022/12/09 06:18:58;;;;;;;23.70;13.15;;;2.40;99.90;;;;;;5081129;28;20174;-79
2022/12/09 06:21:27;;;;;;;35.17;13.48;;;2.30;99.90;;;;;;5083532;28;20201;-79
2022/12/09 06:23:53;;;;;;;41.22;12.65;;;2.60;99.90;;;;;;5080700;28;20287;-80
2022/12/09 06:26:22;;;;;;;40.15;13.43;;;2.80;99.90;;;;;;5084819;28;20175;-78
2022/12/09 06:28:47;;;;;;;45.45;14.68;;;2.90;99.90;;;;;;5077460;28;20555;-79
2022/12/09 06:31:14;;;;;;;19.70;13.25;;;2.80;99.90;;;;;;5081772;28;20182;-79
2022/12/09 06:33:41;;;;;;;28.23;14.00;;;2.90;99.90;;;;;;5084568;28;20235;-78
2022/12/09 06:36:07;;;;;;;61.65;13.25;;;3.00;99.90;;;;;;5078779;28;20173;-83
2022/12/09 06:38:33;;;;;;;29.48;15.05;;;2.90;99.90;;;;;;5076619;28;20171;-81
2022/12/09 06:40:58;;;;;;;26.30;13.55;;;2.90;99.90;;;;;;5081756;28;20642;-80
2022/12/09 06:43:24;;;;;;;26.63;13.68;;;2.70;99.90;;;;;;5081232;28;20167;-80
2022/12/09 06:45:49;;;;;;;32.20;15.43;;;2.70;99.90;;;;;;5076659;28;20209;-79
2022/12/09 06:48:18;;;;;;;33.25;14.35;;;3.00;99.90;;;;;;5085370;28;20229;-78
2022/12/09 06:50:45;;;;;;;62.65;14.40;;;3.00;99.90;;;;;;5082994;28;20507;-78
2022/12/09 06:53:10;;;;;;;66.88;14.05;;;3.10;99.90;;;;;;5079681;28;20155;-79
2022/12/09 06:55:36;;;;;;;71.72;14.35;;;2.60;99.90;;;;;;5073144;28;20173;-78
2022/12/09 06:58:01;;;;;;;35.10;13.02;;;2.70;99.90;;;;;;5073079;28;20686;-79
2022/12/09 07:00:27;;;;;;;50.78;14.98;;;2.50;99.90;;;;;;5072666;28;20186;-79
2022/12/09 07:02:53;;;;;;;60.78;16.55;;;2.50;99.90;;;;;;5072692;28;20416;-80
2022/12/09 07:05:18;;;;;;;68.05;15.27;;;2.30;99.90;;;;;;5072387;28;20293;-79
2022/12/09 07:07:50;;;;;;;48.10;14.98;;;2.60;99.90;;;;;;5072834;28;20169;-80
2022/12/09 07:10:15;;;;;;;41.97;15.88;;;2.90;99.90;;;;;;5072394;28;20962;-80
2022/12/09 07:12:41;;;;;;;48.90;15.77;;;3.10;99.90;;;;;;5072589;28;20197;-79
2022/12/09 07:15:07;;;;;;;86.82;15.85;;;3.10;99.90;;;;;;5072947;28;20177;-79
2022/12/09 07:17:32;;;;;;;56.08;17.17;;;2.90;99.90;;;;;;5072338;28;20201;-79
2022/12/09 07:19:58;;;;;;;50.58;17.15;;;3.00;99.90;;;;;;5072440;28;20285;-80
2022/12/09 07:22:24;;;;;;;72.70;15.25;;;2.90;99.90;;;;;;5072361;28;20187;-80
2022/12/09 07:24:49;;;;;;;33.40;14.30;;;2.90;99.90;;;;;;5072318;28;20195;-80
2022/12/09 07:27:15;;;;;;;39.35;15.07;;;2.70;99.90;;;;;;5072670;28;20619;-79
2022/12/09 07:29:41;;;;;;;34.20;15.25;;;2.80;99.90;;;;;;5071250;28;20643;-79
2022/12/09 07:32:10;;;;;;;43.38;15.82;;;3.00;99.90;;;;;;5072316;28;20193;-80
2022/12/09 07:34:36;;;;;;;64.47;17.77;;;3.10;99.90;;;;;;5070797;28;20190;-81
2022/12/09 07:37:02;;;;;;;60.72;18.23;;;3.30;99.90;;;;;;5072308;28;20194;-80
2022/12/09 07:39:28;;;;;;;32.55;17.13;;;3.60;99.90;;;;;;5072253;28;20700;-79
2022/12/09 07:41:55;;;;;;;47.17;20.05;;;3.60;99.90;;;;;;5071182;28;20269;-80
2022/12/09 07:44:21;;;;;;;50.60;18.95;;;3.70;99.90;;;;;;5072809;28;20220;-79
2022/12/09 07:46:47;;;;;;;38.03;19.05;;;3.70;99.90;;;;;;5075296;28;20174;-79
2022/12/09 07:49:13;;;;;;;69.70;18.38;;;3.70;99.90;;;;;;5078727;28;20700;-79
2022/12/09 07:51:39;;;;;;;54.85;19.38;;;3.40;99.90;;;;;;5077286;28;20206;-78
2022/12/09 07:54:04;;;;;;;64.60;17.20;;;3.30;99.90;;;;;;5078920;28;20215;-83
2022/12/09 07:56:30;;;;;;;57.72;18.92;;;3.20;99.90;;;;;;5079225;28;20185;-81
2022/12/09 07:58:56;;;;;;;94.10;18.25;;;2.90;99.90;;;;;;5077707;28;20647;-84
2022/12/09 08:01:26;;;;;;;41.85;17.20;;;2.90;99.90;;;;;;5079441;28;20250;-79
2022/12/09 08:03:55;;;;;;;42.70;17.70;;;2.90;99.90;;;;;;5083975;28;20222;-78
2022/12/09 08:06:23;;;;;;;37.63;18.08;;;2.90;99.90;;;;;;5090063;28;20236;-79
2022/12/09 08:08:49;;;;;;;58.38;17.38;;;3.10;99.90;;;;;;5083554;28;20173;-80
2022/12/09 08:11:22;;;;;;;69.15;17.08;;;3.20;99.90;;;;;;5093249;28;20243;-80
2022/12/09 08:13:49;;;;;;;58.97;18.02;;;2.90;99.90;;;;;;5094389;28;20649;-79
2022/12/09 08:16:17;;;;;;;46.88;18.35;;;2.90;99.90;;;;;;5058270;28;20188;-79
2022/12/09 08:18:48;;;;;;;45.58;17.25;;;2.90;99.90;;;;;;5086743;28;20638;-78
2022/12/09 08:21:17;;;;;;;59.47;18.80;;;2.80;99.90;;;;;;5088682;28;20223;-79
2022/12/09 08:23:46;;;;;;;67.97;19.00;;;2.90;99.90;;;;;;5086244;28;20296;-79
2022/12/09 08:26:13;;;;;;;65.70;19.40;;;2.90;99.90;;;;;;5087864;28;20238;-79
2022/12/09 08:28:39;;;;;;;70.30;20.67;;;3.10;99.90;;;;;;5084608;28;20182;-78
2022/12/09 08:31:13;;;;;;;74.40;19.45;;;3.00;99.90;;;;;;5088294;28;20543;-79
2022/12/09 08:33:40;;;;;;;47.10;19.30;;;2.70;99.90;;;;;;5087508;28;20251;-79
2022/12/09 08:36:16;;;;;;;48.50;20.63;;;2.70;99.90;;;;;;5088576;28;20174;-78
2022/12/09 08:38:42;;;;;;;44.90;17.73;;;2.80;99.90;;;;;;5094040;28;20617;-78
2022/12/09 08:41:17;;;;;;;38.15;17.75;;;3.00;99.90;;;;;;5088016;28;20212;-77
2022/12/09 08:43:43;;;;;;;42.30;17.70;;;3.20;99.90;;;;;;5085218;28;20645;-79
2022/12/09 08:46:13;;;;;;;46.60;19.63;;;3.50;99.90;;;;;;5079772;28;20191;-78
2022/12/09 08:48:40;;;;;;;50.25;20.42;;;3.50;99.90;;;;;;5080395;28;20220;-79
2022/12/09 08:51:08;;;;;;;49.80;21.23;;;3.50;99.90;;;;;;5078646;28;20186;-82
2022/12/09 08:53:34;;;;;;;51.00;21.00;;;3.40;99.90;;;;;;5078692;28;20158;-82
2022/12/09 08:56:08;;;;;;;45.72;19.42;;;3.40;99.90;;;;;;5079397;28;20253;-81
2022/12/09 08:58:33;;;;;;;55.33;21.20;;;3.20;99.90;;;;;;5077408;28;20696;-80
2022/12/09 09:00:59;;;;;;;55.63;22.70;;;3.20;99.90;;;;;;5073768;28;20178;-80
2022/12/09 09:03:24;;;;;;;52.33;22.77;;;3.00;99.90;;;;;;5075551;28;20686;-80
2022/12/09 09:05:50;;;;;;;59.85;22.77;;;3.20;99.90;;;;;;5075359;28;20210;-79
2022/12/09 09:08:16;;;;;;;57.65;22.55;;;3.30;99.90;;;;;;5073767;28;20170;-79
2022/12/09 09:10:41;;;;;;;71.03;24.98;;;3.10;99.90;;;;;;5077662;28;20182;-79
2022/12/09 09:13:07;;;;;;;62.38;23.73;;;3.20;99.90;;;;;;5074806;28;20653;-79
2022/12/09 09:15:32;;;;;;;64.60;23.80;;;3.20;99.90;;;;;;5074423;28;20231;-82
2022/12/09 09:17:58;;;;;;;59.17;22.20;;;3.30;99.90;;;;;;5075098;28;20170;-82
2022/12/09 09:20:23;;;;;;;66.05;24.10;;;3.20;99.90;;;;;;5074894;28;20220;-83
2022/12/09 09:22:49;;;;;;;63.38;24.17;;;3.30;99.90;;;;;;5074900;28;20166;-82
2022/12/09 09:25:15;;;;;;;53.75;22.77;;;3.30;99.90;;;;;;5075260;28;20315;-87
2022/12/09 09:27:40;;;;;;;58.95;23.15;;;3.50;99.90;;;;;;5073454;28;20650;-83
2022/12/09 09:30:08;;;;;;;51.75;20.85;;;3.80;99.90;;;;;;5075794;28;20694;-85
2022/12/09 09:32:34;;;;;;;52.75;22.50;;;3.80;99.90;;;;;;5075212;28;20167;-81
2022/12/09 09:34:59;;;;;;;53.30;21.92;;;3.80;99.90;;;;;;5075238;28;20162;-79
2022/12/09 09:37:25;;;;;;;67.40;21.30;;;3.50;99.90;;;;;;5074898;28;20657;-82
2022/12/09 09:39:51;;;;;;;47.92;21.27;;;3.50;99.90;;;;;;5074760;28;20163;-78
2022/12/09 09:42:22;;;;;;;63.78;21.60;;;3.90;99.90;;;;;;5075195;28;20187;-79
2022/12/09 09:44:50;;;;;;;54.90;18.83;;;4.00;99.90;;;;;;5074812;28;20213;-79
2022/12/09 09:47:18;;;;;;;48.92;18.33;;;4.00;99.90;;;;;;5074720;28;20193;-80
2022/12/09 09:49:52;;;;;;;47.50;19.17;;;3.90;99.90;;;;;;5074216;28;20162;-83
2022/12/09 09:52:24;;;;;;;50.72;18.50;;;3.70;99.90;;;;;;5074270;28;20182;-79
2022/12/09 09:54:50;;;;;;;40.35;16.13;;;4.00;99.90;;;;;;5073422;28;20185;-82
2022/12/09 09:57:20;;;;;;;41.50;18.80;;;4.10;99.90;;;;;;5074566;28;20223;-81
2022/12/09 10:00:20;;;;;;;44.15;18.45;;;4.00;99.90;;;;;;5073319;28;20261;-79
2022/12/09 10:03:00;;;;;;;34.88;16.90;;;4.00;99.90;;;;;;5073461;28;20520;-80
2022/12/09 10:05:32;;;;;;;38.55;17.20;;;4.00;99.90;;;;;;5073000;28;20202;-82
2022/12/09 10:08:16;;;;;;;36.53;17.05;;;4.40;99.90;;;;;;5072937;28;20167;-80
2022/12/09 10:11:08;;;;;;;36.20;16.58;;;4.60;99.90;;;;;;5073831;28;20189;-81
2022/12/09 10:13:43;;;;;;;34.70;16.38;;;4.60;99.90;;;;;;5068187;28;20175;-80
2022/12/09 10:16:27;;;;;;;28.02;15.13;;;4.60;99.90;;;;;;5073977;28;20173;-83
2022/12/09 10:19:03;;;;;;;40.28;16.42;;;4.50;99.90;;;;;;5074435;28;20170;-80
2022/12/09 10:21:31;;;;;;;35.83;15.98;;;4.60;99.90;;;;;;5074017;28;20606;-80
2022/12/09 10:24:21;;;;;;;36.10;18.15;;;4.50;99.90;;;;;;5072976;28;20228;-80
2022/12/09 10:27:00;;;;;;;33.75;15.88;;;4.60;99.90;;;;;;5073130;28;20210;-80
2022/12/09 10:29:55;;;;;;;33.35;16.73;;;4.60;99.90;;;;;;5073739;28;20174;-85
2022/12/09 10:32:23;;;;;;;34.95;15.88;;;4.70;99.90;;;;;;5073662;28;20209;-82
2022/12/09 10:34:49;;;;;;;34.65;16.98;;;4.40;99.90;;;;;;5073578;28;20170;-81
2022/12/09 10:37:36;;;;;;;39.92;18.05;;;4.00;99.90;;;;;;5073419;28;20174;-82
2022/12/09 10:40:10;;;;;;;37.42;16.10;;;4.30;99.90;;;;;;5073473;28;20155;-81
2022/12/09 10:45:29;;;;;;;33.60;16.65;;;4.40;99.90;;;;;;5073618;28;20213;-83
2022/12/09 10:47:55;;;;;;;47.90;17.15;;;4.50;99.90;;;;;;5073582;28;20163;-84
2022/12/09 10:50:31;;;;;;;30.25;15.98;;;4.30;99.90;;;;;;5073619;28;20220;-85
2022/12/09 10:53:03;;;;;;;45.35;16.33;;;4.30;99.90;;;;;;5073347;28;20205;-80
2022/12/09 10:55:35;;;;;;;37.63;17.02;;;4.50;99.90;;;;;;5073022;28;20234;-84
2022/12/09 10:58:16;;;;;;;34.83;16.48;;;4.60;99.90;;;;;;5073310;28;20163;-78
2022/12/09 11:00:41;;;;;;;37.28;16.48;;;4.70;99.90;;;;;;5073538;28;20186;-79
2022/12/09 11:03:28;;;;;;;34.67;16.50;;;4.60;99.90;;;;;;5073521;28;20178;-83
2022/12/09 11:06:00;;;;;;;37.85;16.58;;;4.60;99.90;;;;;;5073464;28;20265;-80
2022/12/09 11:08:26;;;;;;;35.28;16.95;;;4.60;99.90;;;;;;5072146;28;20271;-84
2022/12/09 11:10:52;;;;;;;36.22;17.48;;;4.80;99.90;;;;;;5070608;28;20290;-83
2022/12/09 11:13:20;;;;;;;42.58;18.17;;;4.90;99.90;;;;;;5054147;28;20186;-82
2022/12/09 11:15:52;;;;;;;46.83;17.67;;;5.10;99.90;;;;;;5053441;28;20170;-87
2022/12/09 11:18:34;;;;;;;37.13;18.25;;;5.10;99.90;;;;;;5054128;28;20163;-86
2022/12/09 11:21:02;;;;;;;44.90;18.63;;;5.00;99.90;;;;;;5053247;28;20199;-84
2022/12/09 11:23:29;;;;;;;36.40;17.52;;;4.60;99.90;;;;;;5053768;28;20166;-88
2022/12/09 11:26:04;;;;;;;32.75;17.45;;;4.80;99.90;;;;;;5054822;28;20233;-86
2022/12/09 11:28:37;;;;;;;36.60;15.52;;;5.00;99.90;;;;;;5054614;28;20716;-83
2022/12/09 11:31:18;;;;;;;31.15;16.60;;;4.90;99.90;;;;;;5072589;22;20210;-79
2022/12/09 11:33:56;;;;;;;31.08;15.45;;;4.90;99.90;;;;;;5071406;28;20780;-79
2022/12/09 11:36:26;;;;;;;42.13;17.55;;;5.00;99.90;;;;;;5069484;28;20181;-79
2022/12/09 11:39:06;;;;;;;38.30;16.20;;;5.10;99.90;;;;;;5071376;28;20379;-79
2022/12/09 11:44:25;;;;;;;36.83;16.88;;;4.50;99.90;;;;;;5064362;28;20562;-79
2022/12/09 11:47:05;;;;;;;29.52;15.82;;;4.50;99.90;;;;;;5050709;28;20200;-80
2022/12/09 11:49:38;;;;;;;38.10;17.15;;;4.50;99.90;;;;;;5051592;28;20167;-79
2022/12/09 11:52:29;;;;;;;39.85;17.02;;;4.60;99.90;;;;;;5051227;28;20544;-80
2022/12/09 11:55:11;;;;;;;42.92;15.93;;;4.70;99.90;;;;;;5039635;28;20636;-80
2022/12/09 11:57:48;;;;;;;34.13;17.13;;;4.80;99.90;;;;;;5058453;28;20221;-80
2022/12/09 12:00:24;;;;;;;38.58;17.48;;;5.10;99.90;;;;;;5048852;28;20187;-80
2022/12/09 12:03:11;;;;;;;32.35;17.45;;;5.10;99.90;;;;;;5051124;28;20163;-81
2022/12/09 12:05:46;;;;;;;38.75;18.17;;;5.30;99.90;;;;;;5049823;28;20203;-80
2022/12/09 12:08:34;;;;;;;35.80;17.27;;;4.90;99.90;;;;;;5051303;28;20171;-81
2022/12/09 12:11:06;;;;;;;37.92;16.88;;;5.10;99.90;;;;;;5051673;28;20191;-80
2022/12/09 12:13:59;;;;;;;34.00;17.15;;;5.10;99.90;;;;;;5050601;28;20603;-80
2022/12/09 12:16:44;;;;;;;30.63;14.82;;;5.00;99.90;;;;;;5048756;28;20171;-80
2022/12/09 12:19:18;;;;;;;34.53;16.55;;;5.20;99.90;;;;;;5037655;28;20186;-81
2022/12/09 12:21:47;;;;;;;31.80;16.65;;;5.40;99.90;;;;;;5042037;28;20198;-80
2022/12/09 12:24:30;;;;;;;37.28;16.50;;;5.20;99.90;;;;;;5050906;28;20659;-80
2022/12/09 12:27:32;;;;;;;33.58;17.38;;;4.70;99.90;;;;;;5049910;28;20248;-79
2022/12/09 12:30:15;;;;;;;40.25;17.13;;;4.40;99.90;;;;;;5009998;28;20209;-79
2022/12/09 12:32:52;;;;;;;45.58;17.40;;;4.60;99.90;;;;;;5033173;28;20534;-81
2022/12/09 12:35:41;;;;;;;44.83;16.95;;;4.80;99.90;;;;;;5034920;28;20183;-79
2022/12/09 12:38:25;;;;;;;34.20;16.15;;;4.80;99.90;;;;;;5049960;28;20210;-79
2022/12/09 12:41:03;;;;;;;48.75;17.08;;;4.90;99.90;;;;;;5037489;28;20201;-79
2022/12/09 12:46:40;;;;;;;46.65;16.75;;;4.40;99.90;;;;;;5052337;28;20674;-79
2022/12/09 12:49:33;;;;;;;39.65;16.98;;;4.30;99.90;;;;;;5054284;28;20171;-80
2022/12/09 12:52:02;;;;;;;28.65;15.20;;;4.40;99.90;;;;;;5053131;28;20350;-79
2022/12/09 12:54:55;;;;;;;38.15;16.70;;;4.40;99.90;;;;;;5049553;28;20171;-80
2022/12/09 12:57:27;;;;;;;44.40;16.73;;;4.60;99.90;;;;;;5033958;28;20176;-80
2022/12/09 13:00:11;;;;;;;36.05;17.00;;;4.30;99.90;;;;;;5034361;28;20199;-81